Latest Weather Observations for Penrith

IDN60901

Issued at 9:21 pm EDT Sunday 7 February 2016 (issued every 10 minutes, with the page automatically refreshed every 10 minutes)

About weather observations | Map of Sydney area stations | Latest observations for Sydney area | Other Formats
Station Details ID: 067113 Name: PENRITH LAKES AWS Lat: -33.72 Lon: 150.68 Height: 24.7 m
Data from the previous 72 hours. | See also: Recent months at Penrith
Date/Time
EDT
Tmp

°C
App
Tmp
°C
Dew
Point
°C
Rel
Hum
%
Delta-T

°C
Wind Press
QNH
hPa
Press
MSL
hPa
Rain
since
9 am
mm
Dir
 
Spd
km/h
Gust
km/h
Spd
kts
Gust
kts
07/09:00pm 22.8 24.0 15.9 65 4.2 ESE 4 6 2 3 - - 0.0
07/08:30pm 23.3 23.9 15.9 63 4.5 ESE 7 9 4 5 - - 0.0
07/08:00pm 23.7 24.3 15.7 61 4.8 ESE 7 11 4 6 - - 0.0
07/07:30pm 24.4 24.5 15.6 58 5.3 ESE 9 13 5 7 - - 0.0
07/07:00pm 25.0 24.4 15.6 56 5.7 ESE 13 19 7 10 - - 0.0
07/06:30pm 25.8 25.7 16.1 55 5.9 ESE 11 17 6 9 - - 0.0
07/06:00pm 26.8 27.4 16.7 54 6.3 ESE 9 17 5 9 - - 0.0
07/05:30pm 27.8 28.4 17.6 53 6.4 ESE 11 15 6 8 - - 0.0
07/05:00pm 27.3 27.8 17.5 55 6.2 ESE 11 19 6 10 - - 0.0
07/04:30pm 27.9 29.6 18.0 55 6.3 ESE 6 11 3 6 - - 0.0
07/04:00pm 26.6 27.3 17.1 56 5.9 ESE 9 17 5 9 - - 0.0
07/03:30pm 27.0 28.1 17.2 55 6.1 SE 7 13 4 7 - - 0.0
07/03:00pm 27.2 28.4 17.4 55 6.2 SE 7 15 4 8 - - 0.0
07/02:30pm 26.8 29.1 17.6 57 5.8 SE 2 6 1 3 - - 0.0
07/02:00pm 26.6 28.5 17.7 58 5.6 SSW 4 9 2 5 - - 0.0
07/01:30pm 26.5 29.0 18.1 60 5.3 SW 2 6 1 3 - - 0.0
07/01:00pm 25.9 28.0 18.1 62 4.9 SSW 4 7 2 4 - - 0.0
07/12:30pm 25.4 26.6 18.3 65 4.5 SE 9 15 5 8 - - 0.0
07/12:00pm 25.5 27.5 18.7 66 4.3 SE 6 9 3 5 - - 0.0
07/11:30am 25.1 27.2 19.0 69 3.9 SE 6 7 3 4 - - 0.0
07/11:00am 25.5 28.2 20.3 73 3.4 SSE 6 11 3 6 - - 0.0
07/10:30am 24.1 27.0 19.8 77 2.8 W 4 7 2 4 - - 0.0
07/10:00am 23.0 25.3 19.4 80 2.3 SW 6 9 3 5 - - 0.0
07/09:30am 22.3 24.5 19.3 83 1.9 SW 6 11 3 6 - - 0.0
07/09:00am 21.4 23.5 19.0 86 1.5 SSW 6 7 3 4 - - 0.0
07/08:30am 20.5 22.7 18.3 87 1.4 S 4 6 2 3 - - 0.0
07/08:00am 19.7 21.2 17.7 88 1.2 S 6 9 3 5 - - 0.0
07/07:30am 18.8 20.0 16.9 89 1.1 S 6 9 3 5 - - 0.0
07/07:00am 18.2 19.2 16.4 89 1.1 SSE 6 9 3 5 - - 0.0
07/06:30am 18.0 19.2 16.0 88 1.2 SSW 4 6 2 3 - - 0.0
07/06:00am 18.0 19.2 16.0 88 1.2 S 4 6 2 3 - - 0.0
07/05:30am 17.8 19.3 15.6 87 1.3 S 2 4 1 2 - - 0.0
07/05:00am 17.7 19.1 15.3 86 1.4 S 2 4 1 2 - - 0.0
07/04:30am 17.9 19.0 15.5 86 1.4 SSW 4 6 2 3 - - 0.0
07/04:00am 17.9 19.0 15.5 86 1.4 S 4 6 2 3 - - 0.0
07/03:30am 17.9 19.6 15.3 85 1.5 CALM 0 0 0 0 - - 0.0
07/03:00am 18.0 19.4 15.3 84 1.6 SSE 2 4 1 2 - - 0.0
07/02:30am 18.1 19.8 15.2 83 1.7 CALM 0 0 0 0 - - 0.0
07/02:00am 18.1 18.6 15.0 82 1.8 S 6 7 3 4 - - 0.0
07/01:30am 18.2 18.7 14.9 81 1.9 SSE 6 7 3 4 - - 0.0
07/01:00am 18.6 19.4 14.9 79 2.2 SSW 4 6 2 3 - - 0.0
07/12:30am 18.8 19.6 14.9 78 2.3 SW 4 6 2 3 - - 0.0
07/12:00am 19.0 19.8 14.9 77 2.4 SSW 4 7 2 4 - - 0.0
 
Date/Time
EDT
Tmp

°C
App
Tmp
°C
Dew
Point
°C
Rel
Hum
%
Delta-T

°C
Wind Press
QNH
hPa
Press
MSL
hPa
Rain
since
9 am
mm
Dir
 
Spd
km/h
Gust
km/h
Spd
kts
Gust
kts
06/11:30pm 19.6 20.6 15.3 76 2.5 WSW 4 7 2 4 - - 0.0
06/11:00pm 19.7 20.0 14.9 74 2.8 SW 7 9 4 5 - - 0.0
06/10:30pm 19.9 20.1 14.7 72 3.0 SSW 7 11 4 6 - - 0.0
06/10:00pm 20.4 20.6 14.7 70 3.3 SSW 7 13 4 7 - - 0.0
06/09:30pm 20.9 21.1 14.8 68 3.6 SSW 7 9 4 5 - - 0.0
06/09:00pm 21.4 21.7 14.6 65 4.0 SSW 6 9 3 5 - - 0.0
06/08:30pm 22.1 22.3 14.7 63 4.4 SSE 7 11 4 6 - - 0.0
06/08:00pm 22.5 21.9 14.6 61 4.7 ESE 11 19 6 10 - - 0.0
06/07:30pm 23.2 22.2 14.7 58 5.0 ESE 13 19 7 10 - - 0.0
06/07:00pm 23.7 23.6 14.9 57 5.2 ESE 9 19 5 10 - - 0.0
06/06:30pm 24.0 22.7 14.7 56 5.5 SE 15 24 8 13 - - 0.0
06/06:00pm 24.3 23.2 15.2 57 5.5 ESE 15 22 8 12 - - 0.0
06/05:30pm 24.5 23.0 15.4 57 5.5 SE 17 22 9 12 - - 0.0
06/05:00pm 24.9 23.3 16.1 58 5.4 SE 19 33 10 18 - - 0.0
06/04:30pm 25.2 24.6 16.6 59 5.3 SE 15 22 8 12 - - 0.0
06/04:00pm 26.4 26.2 18.5 62 5.0 SE 17 28 9 15 - - 0.0
06/03:30pm 25.0 24.8 17.7 64 4.6 SSE 15 22 8 12 - - 0.0
06/03:00pm 25.6 27.0 19.5 69 3.9 E 11 20 6 11 - - 0.0
06/02:30pm 23.9 25.8 19.8 78 2.6 SW 9 15 5 8 - - 0.0
06/02:00pm 22.5 23.1 18.5 78 2.5 SSW 13 24 7 13 - - 0.0
06/01:30pm 22.6 23.7 18.8 79 2.4 SSW 11 17 6 9 - - 0.0
06/01:00pm 21.4 21.2 17.6 79 2.3 SSW 15 24 8 13 - - 0.0
06/12:30pm 23.1 23.4 18.8 77 2.7 SSW 15 22 8 12 - - 0.0
06/12:00pm 22.7 23.2 19.3 81 2.2 SSW 15 20 8 11 - - 0.0
06/11:30am 20.8 20.7 17.8 83 1.9 SSW 15 24 8 13 - - 0.0
06/11:00am 20.4 20.4 17.2 82 2.0 SSW 13 22 7 12 - - 0.0
06/10:30am 19.9 20.0 16.5 81 2.0 SW 11 17 6 9 - - 0.0
06/10:00am 19.8 18.9 15.9 78 2.3 S 15 20 8 11 - - 0.0
06/09:30am 20.2 20.8 15.2 73 3.0 ESE 6 9 3 5 - - 0.0
06/09:00am 20.9 20.6 15.4 71 3.3 SSW 11 19 6 10 - - 0.0
06/08:30am 20.7 19.6 15.3 71 3.2 SSW 15 22 8 12 - - 0.0
06/08:00am 20.2 19.8 15.2 73 3.0 SSW 11 17 6 9 - - 0.0
06/07:30am 19.6 19.1 14.8 74 2.8 SSW 11 19 6 10 - - 0.0
06/07:00am 19.3 18.7 14.6 74 2.7 SSW 11 17 6 9 - - 0.0
06/06:30am 18.9 18.2 14.4 75 2.6 SSW 11 15 6 8 - - 0.0
06/06:00am 18.5 18.0 13.8 74 2.7 SSW 9 13 5 7 - - 0.0
06/05:30am 18.8 18.4 14.1 74 2.7 SSW 9 15 5 8 - - 0.0
06/05:00am 18.7 17.9 14.0 74 2.7 SSW 11 15 6 8 - - 0.0
06/04:30am 18.6 17.8 13.9 74 2.7 SSW 11 17 6 9 - - 0.0
06/04:00am 18.6 17.7 13.7 73 2.8 SSW 11 15 6 8 - - 0.0
06/03:30am 18.7 18.2 13.8 73 2.8 SSW 9 15 5 8 - - 0.0
06/03:00am 19.2 18.4 14.0 72 3.0 SSW 11 17 6 9 - - 0.0
06/02:30am 19.5 18.4 14.3 72 3.0 SSW 13 17 7 9 - - 0.0
06/02:00am 19.5 18.8 14.3 72 3.0 SSW 11 19 6 10 - - 0.0
06/01:30am 19.6 18.5 14.4 72 3.0 S 13 20 7 11 - - 0.0
06/01:00am 20.1 19.1 14.7 71 3.2 SSW 13 19 7 10 - - 0.0
06/12:30am 20.1 19.1 14.7 71 3.2 SSW 13 19 7 10 - - 0.0
06/12:00am 20.1 19.5 14.7 71 3.2 SSW 11 15 6 8 - - 0.0
 
Date/Time
EDT
Tmp

°C
App
Tmp
°C
Dew
Point
°C
Rel
Hum
%
Delta-T

°C
Wind Press
QNH
hPa
Press
MSL
hPa
Rain
since
9 am
mm
Dir
 
Spd
km/h
Gust
km/h
Spd
kts
Gust
kts
05/11:30pm 20.0 19.4 14.6 71 3.2 SSW 11 17 6 9 - - 0.0
05/11:00pm 20.1 19.7 14.2 69 3.4 SSW 9 13 5 7 - - 0.0
05/10:30pm 20.4 20.1 14.3 68 3.5 SSW 9 15 5 8 - - 0.0
05/10:00pm 21.2 20.7 14.8 67 3.8 S 11 20 6 11 - - 0.0
05/09:30pm 21.1 19.7 14.5 66 3.9 S 15 20 8 11 - - 0.0
05/09:00pm 21.4 20.2 14.1 63 4.2 S 13 19 7 10 - - 0.0
05/08:30pm 21.6 20.0 13.8 61 4.5 SSE 15 24 8 13 - - 0.0
05/08:00pm 21.9 20.1 13.3 58 4.9 SSE 15 19 8 10 - - 0.0
05/07:30pm 22.6 20.1 13.4 56 5.3 SSE 19 30 10 16 - - 0.0
05/07:00pm 23.2 19.8 13.7 55 5.5 SSE 24 33 13 18 - - 0.0
05/06:30pm 23.3 19.9 13.8 55 5.5 SSE 24 33 13 18 - - 0.0
05/06:00pm 23.1 18.4 13.3 54 5.7 SE 30 44 16 24 - - 0.0
05/05:30pm 23.6 20.2 13.8 54 5.7 SSE 24 41 13 22 - - 0.0
05/05:00pm 24.8 22.0 14.3 52 6.2 SSE 22 37 12 20 - - 0.0
05/04:30pm 24.9 21.5 13.8 50 6.5 SSE 24 35 13 19 - - 0.0
05/04:00pm 25.0 21.2 13.5 48 6.7 S 26 43 14 23 - - 0.0
05/03:30pm 25.7 23.2 15.1 52 6.4 SSE 22 35 12 19 - - 0.0
05/03:00pm 24.9 21.6 14.1 51 6.4 SSE 24 33 13 18 - - 0.0
05/02:30pm 24.2 21.7 14.0 53 6.0 S 20 33 11 18 - - 0.0
05/02:00pm 24.9 21.5 14.7 53 6.1 S 26 43 14 23 - - 0.0
05/01:30pm 25.0 22.4 15.0 53 6.0 SSE 22 39 12 21 - - 0.0
05/01:00pm 24.1 21.0 14.5 55 5.7 SSE 24 39 13 21 - - 0.0
05/12:30pm 23.6 20.5 14.6 57 5.3 S 24 39 13 21 - - 0.0
05/12:00pm 23.7 20.7 14.7 57 5.3 SSE 24 37 13 20 - - 0.0
05/11:30am 23.3 21.1 14.8 59 5.0 SSE 20 32 11 17 - - 0.0
05/11:00am 23.1 21.0 15.2 61 4.7 SSE 20 35 11 19 - - 0.0
05/10:30am 22.1 20.5 15.0 64 4.2 S 17 22 9 12 - - 0.0
05/10:00am 20.8 18.4 14.5 67 3.7 SSE 20 32 11 17 - - 0.0
05/09:30am 21.3 20.0 14.7 66 3.9 SSE 15 20 8 11 - - 0.0
05/09:00am 20.8 19.5 14.7 68 3.6 S 15 20 8 11 - - 0.0
05/08:30am 20.3 17.9 14.4 69 3.4 S 20 32 11 17 - - 0.0
05/08:00am 20.4 19.0 14.5 69 3.4 SSW 15 24 8 13 - - 0.0
05/07:30am 19.5 18.0 14.1 71 3.1 SSW 15 20 8 11 - - 0.0
05/07:00am 18.6 17.1 13.0 70 3.2 SSW 13 20 7 11 - - 0.0
05/06:30am 18.7 17.1 12.9 69 3.3 SSW 13 19 7 10 - - 0.0
05/06:00am 19.1 17.6 13.1 68 3.4 SSW 13 20 7 11 - - 0.0
05/05:30am 19.4 17.5 12.9 66 3.7 SSW 15 24 8 13 - - 0.0
05/05:00am 19.3 17.3 12.8 66 3.7 SSW 15 20 8 11 - - 0.0
05/04:30am 19.4 17.5 12.9 66 3.7 SSW 15 22 8 12 - - 0.0
05/04:00am 19.7 17.9 13.4 67 3.6 SSW 15 20 8 11 - - 0.0
05/03:30am 19.6 18.6 13.5 68 3.5 SSW 11 17 6 9 - - 0.0
05/03:00am 19.5 18.1 13.4 68 3.5 SSW 13 17 7 9 - - 0.0
05/02:30am 19.6 18.2 13.5 68 3.5 SSW 13 19 7 10 - - 0.0
05/02:00am 19.7 18.4 13.6 68 3.5 SSW 13 19 7 10 - - 0.0
05/01:30am 19.7 18.4 13.6 68 3.5 SSW 13 19 7 10 - - 0.0
05/01:00am 19.6 18.2 13.3 67 3.6 SSW 13 22 7 12 - - 0.0
05/12:30am 19.4 17.8 12.9 66 3.7 SSW 13 17 7 9 - - 0.0
05/12:00am 19.6 17.6 12.6 64 3.9 SW 15 20 8 11 - - 0.0
 
Date/Time
EDT
Tmp

°C
App
Tmp
°C
Dew
Point
°C
Rel
Hum
%
Delta-T

°C
Wind Press
QNH
hPa
Press
MSL
hPa
Rain
since
9 am
mm
Dir
 
Spd
km/h
Gust
km/h
Spd
kts
Gust
kts
04/11:30pm 19.3 17.1 12.1 63 4.0 SSW 15 20 8 11 - - 0.0
04/11:00pm 19.4 17.2 12.2 63 4.0 SSW 15 22 8 12 - - 0.0
04/10:30pm 19.6 17.4 12.1 62 4.2 SSW 15 20 8 11 - - 0.0
04/10:00pm 20.0 17.6 12.5 62 4.2 SSW 17 26 9 14 - - 0.0
04/09:30pm 20.3 17.8 12.3 60 4.5 SSW 17 24 9 13 - - 0.0

Latest Capital City Observations: Canberra | Sydney | Melbourne | Brisbane | Adelaide | Perth | Hobart | Darwin

Other Formats:

Comma delimited format used in spreadsheet applications
http://www.bom.gov.au/fwo/IDN60901/IDN60901.94763.axf

JavaScript Object Notation format (JSON) in row-major order
http://www.bom.gov.au/fwo/IDN60901/IDN60901.94763.json